createdAt,value
2023-03-29T00:00:12.160Z,81.50
2023-03-29T00:02:40.104Z,81.50
2023-03-29T00:05:09.274Z,81.70
2023-03-29T00:07:37.490Z,81.70
2023-03-29T00:10:08.162Z,81.70
2023-03-29T00:12:36.025Z,81.80
2023-03-29T00:15:04.414Z,82.00
2023-03-29T00:17:32.263Z,81.90
2023-03-29T00:20:00.212Z,82.20
2023-03-29T00:22:28.367Z,82.30
2023-03-29T00:24:56.238Z,82.20
2023-03-29T00:27:25.656Z,82.30
2023-03-29T00:29:53.447Z,82.50
2023-03-29T00:32:21.351Z,82.50
2023-03-29T00:34:50.615Z,82.60
2023-03-29T00:37:18.797Z,82.60
2023-03-29T00:39:48.072Z,82.60
2023-03-29T00:42:17.525Z,82.70
2023-03-29T00:45:05.303Z,82.90
2023-03-29T00:47:38.904Z,83.00
2023-03-29T00:50:14.227Z,82.70
2023-03-29T00:52:43.600Z,83.00
2023-03-29T00:55:16.559Z,82.80
2023-03-29T00:57:46.602Z,82.90
2023-03-29T01:00:20.656Z,82.80
2023-03-29T01:02:54.080Z,83.00
2023-03-29T01:05:29.448Z,83.10
2023-03-29T01:08:01.975Z,83.10
2023-03-29T01:10:35.616Z,83.00
2023-03-29T01:13:07.511Z,82.80
2023-03-29T01:15:38.784Z,83.00
2023-03-29T01:18:06.762Z,82.90
2023-03-29T01:20:46.146Z,83.10
2023-03-29T01:23:45.825Z,83.10
2023-03-29T01:26:19.929Z,83.20
2023-03-29T01:28:53.955Z,83.00
2023-03-29T01:31:26.032Z,83.00
2023-03-29T01:34:02.199Z,83.10
2023-03-29T01:36:37.150Z,82.90
2023-03-29T01:39:07.600Z,83.10
2023-03-29T01:41:41.528Z,83.00
2023-03-29T01:44:16.429Z,82.90
2023-03-29T01:46:47.619Z,83.10
2023-03-29T01:49:21.775Z,83.20
2023-03-29T01:51:56.094Z,83.10
2023-03-29T01:54:28.660Z,83.20
2023-03-29T01:56:58.466Z,83.20
2023-03-29T01:59:32.234Z,83.40
2023-03-29T02:02:02.132Z,83.40
2023-03-29T02:04:34.511Z,83.40
2023-03-29T02:07:05.873Z,83.20
2023-03-29T02:09:37.157Z,83.20
2023-03-29T02:12:07.609Z,83.10
2023-03-29T02:14:36.787Z,83.00
2023-03-29T02:17:18.170Z,83.10
2023-03-29T02:19:50.037Z,82.90
2023-03-29T02:22:24.136Z,83.10
2023-03-29T02:24:56.547Z,83.20
2023-03-29T02:27:24.501Z,83.10
2023-03-29T02:29:54.057Z,82.90
2023-03-29T02:32:27.290Z,83.00
2023-03-29T02:34:59.766Z,83.10
2023-03-29T02:37:30.200Z,83.20
2023-03-29T02:39:59.718Z,82.90
2023-03-29T02:42:29.368Z,83.00
2023-03-29T02:45:01.172Z,83.10
2023-03-29T02:47:33.405Z,83.00
2023-03-29T02:50:01.573Z,83.00
2023-03-29T02:52:35.035Z,83.30
2023-03-29T02:55:06.236Z,83.40
2023-03-29T02:57:35.524Z,83.20
2023-03-29T03:00:09.457Z,83.10
2023-03-29T03:02:37.514Z,83.00
2023-03-29T03:05:06.327Z,83.00
2023-03-29T03:07:34.324Z,83.00
2023-03-29T03:10:03.837Z,83.20
2023-03-29T03:12:31.692Z,83.00
2023-03-29T03:14:59.511Z,82.90
2023-03-29T03:17:28.681Z,82.90
2023-03-29T03:19:56.502Z,82.80
2023-03-29T03:22:24.768Z,82.60
2023-03-29T03:24:52.601Z,82.70
2023-03-29T03:27:20.482Z,82.40
2023-03-29T03:29:48.524Z,82.30
2023-03-29T03:32:16.404Z,82.50
2023-03-29T03:34:45.621Z,82.80
2023-03-29T03:37:13.543Z,82.80
2023-03-29T03:39:41.479Z,82.80
2023-03-29T03:42:09.302Z,82.50
2023-03-29T03:44:37.848Z,82.40
2023-03-29T03:47:06.635Z,82.20
2023-03-29T03:49:34.592Z,82.40
2023-03-29T03:52:03.802Z,82.00
2023-03-29T03:54:31.990Z,81.90
2023-03-29T03:56:59.870Z,81.60
2023-03-29T03:59:27.670Z,81.40
2023-03-29T04:01:55.529Z,81.10
2023-03-29T04:04:24.097Z,81.00
2023-03-29T04:06:52.704Z,80.90
2023-03-29T04:09:22.710Z,81.00
2023-03-29T04:11:52.952Z,80.80
2023-03-29T04:14:21.487Z,80.70
2023-03-29T04:16:49.335Z,80.70
2023-03-29T04:19:17.594Z,80.50
2023-03-29T04:21:45.954Z,80.50
2023-03-29T04:24:13.962Z,80.50
2023-03-29T04:26:43.243Z,80.50
2023-03-29T04:29:11.086Z,80.40
2023-03-29T04:31:38.984Z,80.30
2023-03-29T04:34:07.118Z,80.00
2023-03-29T04:36:35.019Z,80.30
2023-03-29T04:39:04.152Z,80.20
2023-03-29T04:41:32.536Z,80.20
2023-03-29T04:44:02.448Z,80.00
2023-03-29T04:46:30.861Z,80.10
2023-03-29T04:48:58.734Z,80.00
2023-03-29T04:51:27.402Z,79.70
2023-03-29T04:53:55.223Z,79.50
2023-03-29T04:56:23.081Z,79.70
2023-03-29T04:58:51.620Z,79.90
2023-03-29T05:01:20.781Z,80.10
2023-03-29T05:03:48.615Z,80.00
2023-03-29T05:06:16.918Z,80.20
2023-03-29T05:08:44.822Z,80.30
2023-03-29T05:11:13.559Z,80.50
2023-03-29T05:13:42.419Z,80.50
2023-03-29T05:16:11.582Z,80.80
2023-03-29T05:18:40.842Z,80.90
2023-03-29T05:21:09.416Z,81.20
2023-03-29T05:23:37.408Z,81.60
2023-03-29T05:26:08.011Z,81.80
2023-03-29T05:28:35.838Z,81.90
2023-03-29T05:31:06.208Z,82.00
2023-03-29T05:33:35.302Z,82.40
2023-03-29T05:36:07.829Z,82.80
2023-03-29T05:38:35.926Z,83.00
2023-03-29T05:41:04.233Z,83.40
2023-03-29T05:43:32.225Z,83.50
2023-03-29T05:46:00.360Z,83.50
2023-03-29T05:48:28.924Z,83.90
2023-03-29T05:50:57.702Z,83.90
2023-03-29T05:53:28.265Z,84.00
2023-03-29T05:55:56.340Z,84.10
2023-03-29T05:58:26.506Z,84.60
2023-03-29T06:00:54.485Z,84.70
2023-03-29T06:03:25.540Z,85.00
2023-03-29T06:05:58.377Z,85.00
2023-03-29T06:08:28.966Z,85.20
2023-03-29T06:11:04.456Z,85.20
2023-03-29T06:13:34.413Z,85.20
2023-03-29T06:16:04.117Z,85.10
2023-03-29T06:18:32.167Z,84.90
2023-03-29T06:21:03.955Z,85.10
2023-03-29T06:23:34.126Z,84.90
2023-03-29T06:26:02.389Z,84.70
2023-03-29T06:28:30.534Z,84.90
2023-03-29T06:33:30.590Z,84.40
2023-03-29T06:35:58.445Z,84.30
2023-03-29T06:38:28.208Z,84.30
2023-03-29T06:41:04.454Z,84.20
2023-03-29T06:43:33.325Z,84.00
2023-03-29T06:46:01.833Z,84.00
2023-03-29T06:48:30.062Z,83.90
2023-03-29T06:50:58.029Z,83.60
2023-03-29T06:53:26.233Z,83.70
2023-03-29T06:55:54.094Z,83.30
2023-03-29T06:58:23.259Z,83.50
2023-03-29T07:00:51.607Z,83.10
2023-03-29T07:03:23.310Z,83.20
2023-03-29T07:05:52.013Z,82.80
2023-03-29T07:08:21.292Z,83.00
2023-03-29T07:10:53.564Z,82.50
2023-03-29T07:13:23.495Z,82.40
2023-03-29T07:15:51.409Z,82.40
2023-03-29T07:18:19.773Z,82.20
2023-03-29T07:20:48.538Z,82.30
2023-03-29T07:23:16.987Z,82.10
2023-03-29T07:25:46.095Z,81.70
2023-03-29T07:28:13.948Z,81.70
2023-03-29T07:30:43.132Z,81.70
2023-03-29T07:33:12.203Z,81.80
2023-03-29T07:35:43.349Z,81.30
2023-03-29T07:38:11.304Z,80.90
2023-03-29T07:40:39.106Z,80.80
2023-03-29T07:43:09.251Z,80.90
2023-03-29T07:45:37.207Z,80.40
2023-03-29T07:48:07.140Z,80.30
2023-03-29T07:50:35.218Z,80.40
2023-03-29T07:53:03.273Z,80.10
2023-03-29T07:55:31.308Z,80.00
2023-03-29T07:57:59.142Z,79.60
2023-03-29T08:00:27.196Z,79.70
2023-03-29T08:02:55.777Z,79.40
2023-03-29T08:07:55.893Z,79.20
2023-03-29T08:10:24.403Z,78.80
2023-03-29T08:12:53.267Z,78.50
2023-03-29T08:15:21.180Z,78.50
2023-03-29T08:17:49.082Z,78.30
2023-03-29T08:20:17.234Z,78.00
2023-03-29T08:22:46.389Z,77.80
2023-03-29T08:25:14.198Z,78.10
2023-03-29T08:27:42.400Z,77.60
2023-03-29T08:30:10.509Z,77.30
2023-03-29T08:32:39.080Z,77.10
2023-03-29T08:35:09.497Z,76.90
2023-03-29T08:37:38.008Z,76.60
2023-03-29T08:40:08.604Z,76.10
2023-03-29T08:43:09.531Z,75.60
2023-03-29T08:45:44.145Z,74.70
2023-03-29T08:48:22.176Z,74.70
2023-03-29T08:50:53.581Z,75.10
2023-03-29T08:53:27.143Z,74.60
2023-03-29T08:55:59.433Z,74.00
2023-03-29T08:58:32.330Z,74.10
2023-03-29T09:01:02.521Z,75.60
2023-03-29T09:03:35.530Z,75.30
2023-03-29T09:06:07.030Z,76.00
2023-03-29T09:08:38.896Z,76.30
2023-03-29T09:11:24.250Z,76.50
2023-03-29T09:14:05.268Z,77.10
2023-03-29T09:16:39.037Z,77.30
2023-03-29T09:19:26.862Z,77.40
2023-03-29T09:22:04.167Z,77.30
2023-03-29T09:24:44.774Z,76.40
2023-03-29T09:27:21.755Z,76.60
2023-03-29T09:29:59.709Z,76.40
2023-03-29T09:32:33.064Z,76.10
2023-03-29T09:35:14.080Z,75.70
2023-03-29T09:37:42.669Z,76.30
2023-03-29T09:40:14.688Z,75.70
2023-03-29T09:42:45.809Z,75.70
2023-03-29T09:45:14.085Z,75.20
2023-03-29T09:47:46.987Z,74.20
2023-03-29T09:50:30.099Z,73.30
2023-03-29T09:52:59.903Z,73.50
2023-03-29T09:55:30.164Z,73.30
2023-03-29T09:58:02.986Z,73.70
2023-03-29T10:00:30.886Z,73.90
2023-03-29T10:03:00.253Z,74.90
2023-03-29T10:05:31.912Z,76.00
2023-03-29T10:08:02.163Z,76.20
2023-03-29T10:10:32.370Z,77.10
2023-03-29T10:13:05.324Z,77.90
2023-03-29T10:15:34.142Z,79.00
2023-03-29T10:18:04.373Z,78.80
2023-03-29T10:20:35.610Z,79.90
2023-03-29T10:23:03.523Z,80.70
2023-03-29T10:25:33.754Z,81.10
2023-03-29T10:28:09.281Z,81.90
2023-03-29T10:30:40.614Z,82.20
2023-03-29T10:33:20.015Z,82.70
2023-03-29T10:35:49.177Z,82.30
2023-03-29T10:38:19.774Z,82.70
2023-03-29T10:40:49.370Z,82.90
2023-03-29T10:43:25.540Z,82.40
2023-03-29T10:45:55.770Z,82.30
2023-03-29T10:48:28.890Z,81.40
2023-03-29T10:51:01.064Z,79.80
2023-03-29T10:53:32.578Z,79.60
2023-03-29T10:56:13.219Z,79.40
2023-03-29T10:58:57.193Z,78.20
2023-03-29T11:01:33.176Z,77.50
2023-03-29T11:04:09.126Z,77.10
2023-03-29T11:06:41.121Z,78.30
2023-03-29T11:09:19.467Z,79.00
2023-03-29T11:12:16.106Z,79.50
2023-03-29T11:14:56.842Z,79.80
2023-03-29T11:17:38.106Z,80.90
2023-03-29T11:20:22.302Z,81.40
2023-03-29T11:22:56.209Z,82.00
2023-03-29T11:25:35.570Z,82.00
2023-03-29T11:28:10.667Z,81.80
2023-03-29T11:30:48.850Z,81.80
2023-03-29T11:33:31.067Z,82.70
2023-03-29T11:36:06.819Z,82.60
2023-03-29T11:38:40.760Z,82.20
2023-03-29T11:41:17.557Z,82.20
2023-03-29T11:43:50.582Z,81.70
2023-03-29T11:46:26.189Z,81.80
2023-03-29T11:49:00.340Z,81.70
2023-03-29T11:51:33.777Z,81.10
2023-03-29T11:54:07.055Z,81.50
2023-03-29T11:56:41.193Z,81.70
2023-03-29T11:59:15.893Z,81.90
2023-03-29T12:01:49.917Z,81.90
2023-03-29T12:04:22.940Z,80.70
2023-03-29T12:06:58.754Z,79.10
2023-03-29T12:09:37.010Z,78.50
2023-03-29T12:12:09.874Z,78.50
2023-03-29T12:14:50.725Z,78.10
2023-03-29T12:17:25.317Z,77.60
2023-03-29T12:20:05.423Z,77.20
2023-03-29T12:22:34.745Z,77.20
2023-03-29T12:25:05.278Z,76.50
2023-03-29T12:27:39.035Z,75.90
2023-03-29T12:30:38.363Z,75.70
2023-03-29T12:33:31.878Z,76.50
2023-03-29T12:36:16.271Z,76.20
2023-03-29T12:38:46.044Z,76.20
2023-03-29T12:41:18.938Z,76.20
2023-03-29T12:43:48.081Z,76.70
2023-03-29T12:46:19.649Z,77.30
2023-03-29T12:48:53.158Z,77.40
2023-03-29T12:51:24.553Z,78.10
2023-03-29T12:53:54.724Z,78.20
2023-03-29T12:56:24.541Z,78.60
2023-03-29T12:59:06.731Z,78.40
2023-03-29T13:01:37.589Z,77.50
2023-03-29T13:04:19.918Z,77.70
2023-03-29T13:07:03.912Z,77.80
2023-03-29T13:09:35.565Z,78.00
2023-03-29T13:12:18.526Z,78.40
2023-03-29T13:14:53.336Z,78.50
2023-03-29T13:17:28.223Z,78.60
2023-03-29T13:20:19.923Z,77.30
2023-03-29T13:22:57.456Z,77.70
2023-03-29T13:25:41.312Z,77.30
2023-03-29T13:28:17.513Z,77.50
2023-03-29T13:30:55.930Z,77.80
2023-03-29T13:33:49.989Z,77.60
2023-03-29T13:36:39.283Z,78.70
2023-03-29T13:39:08.333Z,79.20
2023-03-29T13:41:48.857Z,79.00
2023-03-29T13:44:29.626Z,78.50
2023-03-29T13:47:07.121Z,78.80
2023-03-29T13:49:36.621Z,78.40
2023-03-29T13:52:16.024Z,78.30
2023-03-29T13:54:51.762Z,77.80
2023-03-29T13:57:21.765Z,76.60
2023-03-29T13:59:57.043Z,76.60
2023-03-29T14:02:33.895Z,75.60
2023-03-29T14:05:04.847Z,75.70
2023-03-29T14:07:40.733Z,76.10
2023-03-29T14:10:13.285Z,75.70
2023-03-29T14:12:42.226Z,76.20
2023-03-29T14:15:23.747Z,76.00
2023-03-29T14:17:57.161Z,76.10
2023-03-29T14:20:28.368Z,75.90
2023-03-29T14:22:57.744Z,75.40
2023-03-29T14:25:26.136Z,73.90
2023-03-29T14:27:53.958Z,74.20
2023-03-29T14:30:27.181Z,73.20
2023-03-29T14:32:56.702Z,74.40
2023-03-29T14:35:32.732Z,73.80
2023-03-29T14:38:03.730Z,74.40
2023-03-29T14:40:32.426Z,74.80
2023-03-29T14:43:05.654Z,74.60
2023-03-29T14:45:34.198Z,74.40
2023-03-29T14:48:02.509Z,75.00
2023-03-29T14:50:32.112Z,75.10
2023-03-29T14:53:03.129Z,75.90
2023-03-29T14:55:31.709Z,76.00
2023-03-29T14:58:00.551Z,75.50
2023-03-29T15:00:31.348Z,74.50
2023-03-29T15:03:02.280Z,74.10
2023-03-29T15:05:36.247Z,73.80
2023-03-29T15:08:07.333Z,74.20
2023-03-29T15:10:37.531Z,74.40
2023-03-29T15:13:07.487Z,74.70
2023-03-29T15:15:40.025Z,73.40
2023-03-29T15:18:10.602Z,73.20
2023-03-29T15:20:40.613Z,73.10
2023-03-29T15:23:25.088Z,73.50
2023-03-29T15:25:59.218Z,73.10
2023-03-29T15:28:31.184Z,72.40
2023-03-29T15:31:07.879Z,72.80
2023-03-29T15:33:38.828Z,73.50
2023-03-29T15:36:09.889Z,73.60
2023-03-29T15:38:44.545Z,73.40
2023-03-29T15:41:14.524Z,73.20
2023-03-29T15:43:43.028Z,73.00
2023-03-29T15:46:13.554Z,73.80
2023-03-29T15:48:42.092Z,73.30
2023-03-29T15:51:11.712Z,73.00
2023-03-29T15:53:41.688Z,72.90
2023-03-29T15:56:11.232Z,72.50
2023-03-29T15:58:39.896Z,72.50
2023-03-29T16:01:23.575Z,73.00
2023-03-29T16:03:51.880Z,73.30
2023-03-29T16:06:22.328Z,73.50
2023-03-29T16:08:51.689Z,74.20
2023-03-29T16:11:19.601Z,74.70
2023-03-29T16:13:47.692Z,75.10
2023-03-29T16:16:15.667Z,75.40
2023-03-29T16:18:43.813Z,75.80
2023-03-29T16:21:14.432Z,77.00
2023-03-29T16:23:42.976Z,77.60
2023-03-29T16:26:14.784Z,78.50
2023-03-29T16:28:43.118Z,79.10
2023-03-29T16:31:12.601Z,79.40
2023-03-29T16:33:42.493Z,79.20
2023-03-29T16:36:12.567Z,79.30
2023-03-29T16:38:41.782Z,79.20
2023-03-29T16:41:14.967Z,79.40
2023-03-29T16:43:43.152Z,79.30
2023-03-29T16:46:12.840Z,79.20
2023-03-29T16:48:44.675Z,79.00
2023-03-29T16:51:12.645Z,79.00
2023-03-29T16:53:40.643Z,79.10
2023-03-29T16:56:12.566Z,79.30
2023-03-29T16:58:42.416Z,79.30
2023-03-29T17:01:12.383Z,79.30
2023-03-29T17:03:40.994Z,79.10
2023-03-29T17:06:11.461Z,79.10
2023-03-29T17:08:40.708Z,79.20
2023-03-29T17:11:08.995Z,79.40
2023-03-29T17:13:37.460Z,79.50
2023-03-29T17:16:08.004Z,79.40
2023-03-29T17:18:36.137Z,79.50
2023-03-29T17:21:04.318Z,79.60
2023-03-29T17:23:32.498Z,79.60
2023-03-29T17:26:01.943Z,79.90
2023-03-29T17:28:30.637Z,80.20
2023-03-29T17:30:58.561Z,80.50
2023-03-29T17:33:37.065Z,81.00
2023-03-29T17:36:06.279Z,81.00
2023-03-29T17:38:34.879Z,81.40
2023-03-29T17:41:04.430Z,81.60
2023-03-29T17:43:32.745Z,82.30
2023-03-29T17:46:01.872Z,82.60
2023-03-29T17:48:32.743Z,82.80
2023-03-29T17:51:01.058Z,83.00
2023-03-29T17:53:28.913Z,83.00
2023-03-29T17:55:57.018Z,83.20
2023-03-29T17:58:25.232Z,83.30
2023-03-29T18:00:53.208Z,83.60
2023-03-29T18:03:21.869Z,83.50
2023-03-29T18:05:51.132Z,83.50
2023-03-29T18:08:19.459Z,83.60
2023-03-29T18:10:47.303Z,83.60
2023-03-29T18:13:15.924Z,83.60
2023-03-29T18:15:45.030Z,83.50
2023-03-29T18:18:13.025Z,83.50
2023-03-29T18:20:41.254Z,83.60
2023-03-29T18:23:10.587Z,82.90
2023-03-29T18:25:38.660Z,83.00
2023-03-29T18:28:06.507Z,82.90
2023-03-29T18:30:34.578Z,82.90
2023-03-29T18:33:02.537Z,82.80
2023-03-29T18:35:31.652Z,82.60
2023-03-29T18:37:59.726Z,82.60
2023-03-29T18:40:28.986Z,82.30
2023-03-29T18:42:56.854Z,82.30
2023-03-29T18:45:27.168Z,82.10
2023-03-29T18:47:55.209Z,82.30
2023-03-29T18:50:23.513Z,81.90
2023-03-29T18:52:52.191Z,81.90
2023-03-29T18:55:20.445Z,81.50
2023-03-29T18:57:50.443Z,81.70
2023-03-29T19:00:19.248Z,81.80
2023-03-29T19:02:47.565Z,81.60
2023-03-29T19:05:17.584Z,81.80
2023-03-29T19:07:45.605Z,81.80
2023-03-29T19:10:13.746Z,81.70
2023-03-29T19:12:42.041Z,81.70
2023-03-29T19:15:14.631Z,81.60
2023-03-29T19:17:42.874Z,81.50
2023-03-29T19:20:11.987Z,81.50
2023-03-29T19:22:40.693Z,81.40
2023-03-29T19:25:09.838Z,81.50
2023-03-29T19:27:39.115Z,81.30
2023-03-29T19:30:09.079Z,81.50
2023-03-29T19:32:38.746Z,81.40
2023-03-29T19:35:09.427Z,81.30
2023-03-29T19:37:37.413Z,81.30
2023-03-29T19:40:08.118Z,81.40
2023-03-29T19:42:37.026Z,81.40
2023-03-29T19:45:06.483Z,81.50
2023-03-29T19:47:34.591Z,81.50
2023-03-29T19:50:05.193Z,81.80
2023-03-29T19:52:34.130Z,81.70
2023-03-29T19:55:02.105Z,81.80
2023-03-29T19:57:30.866Z,81.70
2023-03-29T19:59:59.023Z,81.80
2023-03-29T20:02:27.444Z,81.70
2023-03-29T20:04:57.603Z,81.60
2023-03-29T20:07:29.081Z,81.80
2023-03-29T20:09:57.659Z,81.50
2023-03-29T20:12:26.023Z,81.40
2023-03-29T20:14:53.934Z,81.40
2023-03-29T20:17:22.180Z,81.30
2023-03-29T20:19:50.812Z,81.30
2023-03-29T20:22:19.074Z,81.40
2023-03-29T20:24:49.392Z,81.40
2023-03-29T20:27:18.218Z,81.60
2023-03-29T20:29:46.497Z,81.60
2023-03-29T20:32:14.753Z,81.90
2023-03-29T20:34:43.007Z,81.90
2023-03-29T20:37:12.826Z,82.20
2023-03-29T20:39:42.994Z,82.30
2023-03-29T20:42:14.360Z,82.20
2023-03-29T20:44:42.270Z,82.40
2023-03-29T20:47:14.051Z,82.40
2023-03-29T20:49:42.616Z,82.60
2023-03-29T20:52:15.472Z,82.80
2023-03-29T20:54:44.800Z,83.10
2023-03-29T20:57:16.342Z,83.20
2023-03-29T20:59:45.874Z,83.10
2023-03-29T21:02:16.470Z,83.20
2023-03-29T21:04:45.306Z,83.40
2023-03-29T21:07:13.236Z,83.40
2023-03-29T21:09:42.208Z,83.30
2023-03-29T21:12:11.196Z,83.60
2023-03-29T21:14:40.745Z,83.60
2023-03-29T21:17:09.326Z,83.60
2023-03-29T21:19:39.272Z,83.50
2023-03-29T21:22:07.201Z,83.60
2023-03-29T21:24:42.727Z,83.60
2023-03-29T21:27:10.633Z,83.60
2023-03-29T21:29:41.537Z,83.70
2023-03-29T21:32:11.189Z,83.80
2023-03-29T21:34:39.987Z,83.70
2023-03-29T21:37:08.456Z,83.90
2023-03-29T21:39:37.011Z,83.90
2023-03-29T21:42:05.226Z,83.90
2023-03-29T21:44:34.490Z,84.20
2023-03-29T21:47:04.297Z,84.10
2023-03-29T21:49:34.435Z,84.10
2023-03-29T21:52:03.196Z,83.90
2023-03-29T21:54:31.913Z,83.90
2023-03-29T21:56:59.960Z,84.00
2023-03-29T21:59:28.750Z,84.10
2023-03-29T22:01:57.994Z,84.20
2023-03-29T22:04:36.473Z,84.30
2023-03-29T22:07:05.796Z,84.50
2023-03-29T22:09:34.641Z,84.40
2023-03-29T22:12:02.849Z,84.50
2023-03-29T22:14:34.716Z,84.30
2023-03-29T22:17:03.072Z,84.20
2023-03-29T22:19:38.867Z,84.10
2023-03-29T22:22:14.076Z,84.20
2023-03-29T22:24:42.685Z,84.20
2023-03-29T22:27:11.655Z,84.30
2023-03-29T22:29:39.989Z,84.50
2023-03-29T22:32:08.120Z,84.40
2023-03-29T22:34:39.228Z,84.50
2023-03-29T22:37:07.127Z,84.70
2023-03-29T22:39:36.639Z,84.80
2023-03-29T22:42:04.938Z,85.00
2023-03-29T22:44:33.914Z,85.00
2023-03-29T22:47:01.830Z,85.20
2023-03-29T22:49:29.965Z,85.50
2023-03-29T22:51:59.889Z,85.70
2023-03-29T22:54:28.033Z,85.70
2023-03-29T22:56:56.403Z,86.00
2023-03-29T22:59:28.006Z,86.20
2023-03-29T23:01:56.266Z,86.30
2023-03-29T23:04:24.697Z,86.30
2023-03-29T23:06:53.140Z,86.00
2023-03-29T23:09:22.587Z,86.00
2023-03-29T23:11:50.959Z,86.30
2023-03-29T23:14:19.128Z,86.40
2023-03-29T23:16:47.768Z,86.50
2023-03-29T23:19:15.727Z,86.60
2023-03-29T23:21:43.662Z,86.50
2023-03-29T23:24:11.881Z,86.80
2023-03-29T23:26:41.561Z,86.70
2023-03-29T23:29:09.579Z,86.90
2023-03-29T23:31:37.950Z,86.80
2023-03-29T23:34:06.329Z,86.80
2023-03-29T23:36:34.693Z,86.60
2023-03-29T23:39:02.937Z,86.70
2023-03-29T23:41:31.120Z,86.70
2023-03-29T23:44:00.964Z,86.70
2023-03-29T23:46:28.926Z,86.60
2023-03-29T23:48:57.184Z,86.50
2023-03-29T23:51:29.505Z,86.40
2023-03-29T23:53:57.845Z,86.20
2023-03-29T23:56:26.300Z,86.00
2023-03-29T23:58:55.734Z,85.70
